createdAt,value
2022-10-22T00:01:38.957Z,8.67
2022-10-22T00:04:07.173Z,8.63
2022-10-22T00:06:35.442Z,8.50
2022-10-22T00:09:03.466Z,8.39
2022-10-22T00:11:32.885Z,8.30
2022-10-22T00:14:00.833Z,8.23
2022-10-22T00:16:28.940Z,8.21
2022-10-22T00:18:56.814Z,8.14
2022-10-22T00:21:25.720Z,8.21
2022-10-22T00:23:53.633Z,8.20
2022-10-22T00:26:21.622Z,8.25
2022-10-22T00:28:50.892Z,8.21
2022-10-22T00:31:20.136Z,8.22
2022-10-22T00:33:48.438Z,8.30
2022-10-22T00:36:16.870Z,8.34
2022-10-22T00:38:44.758Z,8.33
2022-10-22T00:41:13.019Z,8.42
2022-10-22T00:44:00.542Z,8.44
2022-10-22T00:46:28.921Z,8.73
2022-10-22T00:48:58.527Z,8.83
2022-10-22T00:51:29.516Z,8.90
2022-10-22T00:54:00.974Z,8.80
2022-10-22T00:56:29.026Z,8.80
2022-10-22T00:58:59.479Z,8.86
2022-10-22T01:01:29.116Z,8.73
2022-10-22T01:03:57.505Z,8.77
2022-10-22T01:06:26.720Z,8.91
2022-10-22T01:09:03.480Z,8.64
2022-10-22T01:11:38.744Z,8.79
2022-10-22T01:14:15.753Z,8.97
2022-10-22T01:16:49.117Z,9.03
2022-10-22T01:19:30.943Z,8.86
2022-10-22T01:22:01.740Z,8.96
2022-10-22T01:24:36.882Z,8.85
2022-10-22T01:27:13.015Z,8.64
2022-10-22T01:29:45.154Z,8.59
2022-10-22T01:32:15.698Z,8.51
2022-10-22T01:34:46.961Z,8.45
2022-10-22T01:37:15.959Z,8.41
2022-10-22T01:39:45.142Z,8.33
2022-10-22T01:42:13.380Z,8.28
2022-10-22T01:44:42.861Z,8.24
2022-10-22T01:47:18.591Z,8.26
2022-10-22T01:50:14.247Z,8.32
2022-10-22T01:52:54.802Z,8.31
2022-10-22T01:55:28.499Z,8.26
2022-10-22T01:58:04.919Z,8.20
2022-10-22T02:00:37.834Z,8.22
2022-10-22T02:03:10.410Z,8.37
2022-10-22T02:05:41.837Z,8.48
2022-10-22T02:08:12.276Z,8.52
2022-10-22T02:10:42.545Z,8.44
2022-10-22T02:13:14.248Z,8.48
2022-10-22T02:15:45.377Z,8.43
2022-10-22T02:18:13.294Z,8.49
2022-10-22T02:20:42.852Z,8.41
2022-10-22T02:23:11.465Z,8.31
2022-10-22T02:25:42.785Z,8.39
2022-10-22T02:28:14.637Z,8.34
2022-10-22T02:30:46.460Z,8.21
2022-10-22T02:33:16.769Z,8.22
2022-10-22T02:35:45.027Z,8.32
2022-10-22T02:38:14.469Z,8.23
2022-10-22T02:40:42.742Z,8.26
2022-10-22T02:43:10.634Z,8.21
2022-10-22T02:45:38.943Z,8.23
2022-10-22T02:48:08.860Z,8.28
2022-10-22T02:50:36.829Z,8.07
2022-10-22T02:53:04.749Z,8.07
2022-10-22T02:55:32.654Z,8.12
2022-10-22T02:58:00.526Z,8.01
2022-10-22T03:00:28.856Z,7.92
2022-10-22T03:02:56.805Z,7.97
2022-10-22T03:05:26.012Z,7.82
2022-10-22T03:07:53.909Z,7.82
2022-10-22T03:10:21.762Z,8.05
2022-10-22T03:12:49.630Z,8.02
2022-10-22T03:15:17.561Z,7.89
2022-10-22T03:17:45.525Z,7.70
2022-10-22T03:20:13.417Z,7.67
2022-10-22T03:22:44.095Z,7.68
2022-10-22T03:25:14.879Z,7.62
2022-10-22T03:27:43.455Z,7.70
2022-10-22T03:30:12.318Z,7.74
2022-10-22T03:32:40.223Z,7.77
2022-10-22T03:35:08.737Z,7.75
2022-10-22T03:37:37.786Z,7.81
2022-10-22T03:40:09.190Z,7.88
2022-10-22T03:42:37.094Z,7.97
2022-10-22T03:45:05.785Z,7.88
2022-10-22T03:47:33.686Z,7.97
2022-10-22T03:50:01.641Z,7.93
2022-10-22T03:52:29.545Z,7.83
2022-10-22T03:54:57.754Z,7.74
2022-10-22T03:57:27.009Z,7.74
2022-10-22T03:59:54.919Z,7.72
2022-10-22T04:02:22.797Z,7.66
2022-10-22T04:04:50.745Z,7.61
2022-10-22T04:07:18.620Z,7.62
2022-10-22T04:09:46.525Z,7.79
2022-10-22T04:12:14.413Z,8.14
2022-10-22T04:14:43.686Z,8.12
2022-10-22T04:17:11.574Z,8.12
2022-10-22T04:19:39.577Z,8.10
2022-10-22T04:22:07.443Z,8.04
2022-10-22T04:24:35.357Z,8.11
2022-10-22T04:27:03.238Z,8.20
2022-10-22T04:29:31.160Z,8.29
2022-10-22T04:32:00.408Z,8.20
2022-10-22T04:34:29.617Z,8.33
2022-10-22T04:36:57.663Z,8.41
2022-10-22T04:39:25.563Z,8.39
2022-10-22T04:41:53.752Z,8.34
2022-10-22T04:44:21.695Z,8.44
2022-10-22T04:46:49.932Z,8.67
2022-10-22T04:49:19.831Z,8.67
2022-10-22T04:51:47.820Z,8.59
2022-10-22T04:54:15.734Z,8.63
2022-10-22T04:56:43.637Z,8.56
2022-10-22T04:59:13.368Z,8.45
2022-10-22T05:01:43.405Z,8.57
2022-10-22T05:04:13.323Z,8.74
2022-10-22T05:06:42.748Z,8.83
2022-10-22T05:09:13.719Z,8.73
2022-10-22T05:11:45.468Z,8.65
2022-10-22T05:14:14.285Z,8.71
2022-10-22T05:16:42.240Z,8.84
2022-10-22T05:19:12.988Z,8.78
2022-10-22T05:21:43.714Z,8.95
2022-10-22T05:24:11.622Z,8.99
2022-10-22T05:26:39.550Z,8.97
2022-10-22T05:29:07.817Z,8.89
2022-10-22T05:31:35.946Z,9.05
2022-10-22T05:34:03.899Z,9.10
2022-10-22T05:36:31.829Z,8.99
2022-10-22T05:39:01.499Z,8.89
2022-10-22T05:41:36.721Z,8.75
2022-10-22T05:44:05.443Z,8.70
2022-10-22T05:46:36.272Z,8.75
2022-10-22T05:49:05.912Z,8.68
2022-10-22T05:51:35.936Z,8.72
2022-10-22T05:54:06.564Z,8.84
2022-10-22T05:56:35.424Z,8.79
2022-10-22T06:01:36.447Z,8.60
2022-10-22T06:04:06.740Z,8.52
2022-10-22T06:06:36.210Z,8.48
2022-10-22T06:09:07.476Z,8.43
2022-10-22T06:11:35.542Z,8.39
2022-10-22T06:14:03.513Z,8.42
2022-10-22T06:16:31.498Z,8.40
2022-10-22T06:19:00.757Z,8.48
2022-10-22T06:21:28.879Z,8.42
2022-10-22T06:23:57.696Z,8.42
2022-10-22T06:26:27.294Z,8.40
2022-10-22T06:28:56.738Z,8.37
2022-10-22T06:31:24.921Z,8.30
2022-10-22T06:33:53.213Z,8.31
2022-10-22T06:36:22.372Z,8.31
2022-10-22T06:38:52.809Z,8.31
2022-10-22T06:41:23.065Z,8.20
2022-10-22T06:43:55.708Z,8.31
2022-10-22T06:46:24.033Z,8.29
2022-10-22T06:48:53.262Z,8.27
2022-10-22T06:51:22.155Z,8.26
2022-10-22T06:53:50.270Z,8.22
2022-10-22T06:56:19.739Z,8.28
2022-10-22T06:58:48.399Z,8.30
2022-10-22T07:01:19.625Z,8.28
2022-10-22T07:03:47.638Z,8.21
2022-10-22T07:06:16.239Z,8.20
2022-10-22T07:08:44.481Z,8.13
2022-10-22T07:11:13.897Z,8.08
2022-10-22T07:13:42.217Z,8.00
2022-10-22T07:16:10.633Z,7.97
2022-10-22T07:18:40.653Z,7.95
2022-10-22T07:21:09.586Z,7.98
2022-10-22T07:23:37.621Z,8.00
2022-10-22T07:26:07.370Z,8.06
2022-10-22T07:28:36.523Z,8.04
2022-10-22T07:31:04.578Z,8.13
2022-10-22T07:33:32.532Z,8.14
2022-10-22T07:36:02.980Z,8.15
2022-10-22T07:38:31.602Z,8.19
2022-10-22T07:40:59.978Z,8.18
2022-10-22T07:43:28.222Z,8.27
2022-10-22T07:45:56.746Z,8.33
2022-10-22T07:48:25.108Z,8.59
2022-10-22T07:50:53.306Z,8.62
2022-10-22T07:53:22.585Z,8.83
2022-10-22T07:55:50.557Z,8.67
2022-10-22T07:58:18.781Z,8.62
2022-10-22T08:00:46.752Z,8.65
2022-10-22T08:03:16.063Z,8.81
2022-10-22T08:05:44.719Z,8.72
2022-10-22T08:08:13.264Z,8.66
2022-10-22T08:10:42.793Z,8.68
2022-10-22T08:13:10.758Z,8.68
2022-10-22T08:15:38.881Z,8.85
2022-10-22T08:18:07.296Z,9.22
2022-10-22T08:20:35.230Z,9.47
2022-10-22T08:23:03.195Z,9.32
2022-10-22T08:25:31.412Z,9.47
2022-10-22T08:28:00.743Z,10.09
2022-10-22T08:30:29.824Z,10.46
2022-10-22T08:32:57.785Z,10.55
2022-10-22T08:35:25.695Z,10.68
2022-10-22T08:37:53.630Z,10.79
2022-10-22T08:40:25.458Z,10.72
2022-10-22T08:43:14.966Z,10.91
2022-10-22T08:45:47.303Z,11.13
2022-10-22T08:48:26.157Z,11.45
2022-10-22T08:50:55.793Z,11.72
2022-10-22T08:53:26.836Z,11.83
2022-10-22T08:55:55.329Z,11.95
2022-10-22T08:58:30.877Z,11.96
2022-10-22T09:01:01.171Z,11.87
2022-10-22T09:03:36.321Z,11.86
2022-10-22T09:06:10.053Z,11.78
2022-10-22T09:08:39.422Z,11.74
2022-10-22T09:11:21.360Z,11.68
2022-10-22T09:13:51.408Z,11.62
2022-10-22T09:16:20.765Z,11.85
2022-10-22T09:18:59.863Z,12.04
2022-10-22T09:21:31.189Z,12.17
2022-10-22T09:24:05.382Z,12.15
2022-10-22T09:26:36.215Z,12.29
2022-10-22T09:29:05.924Z,12.16
2022-10-22T09:31:34.571Z,12.39
2022-10-22T09:34:07.450Z,12.05
2022-10-22T09:36:36.670Z,12.17
2022-10-22T09:39:05.281Z,12.26
2022-10-22T09:41:33.257Z,12.21
2022-10-22T09:44:01.169Z,12.28
2022-10-22T09:46:31.334Z,12.48
2022-10-22T09:49:04.793Z,12.57
2022-10-22T09:51:39.143Z,12.42
2022-10-22T09:54:16.377Z,12.53
2022-10-22T09:56:49.172Z,12.28
2022-10-22T09:59:18.029Z,12.54
2022-10-22T10:01:47.333Z,12.65
2022-10-22T10:04:16.680Z,12.57
2022-10-22T10:06:45.925Z,12.70
2022-10-22T10:09:17.880Z,12.86
2022-10-22T10:11:50.010Z,12.93
2022-10-22T10:14:22.866Z,13.16
2022-10-22T10:16:58.073Z,12.91
2022-10-22T10:19:34.674Z,12.93
2022-10-22T10:22:08.923Z,12.97
2022-10-22T10:24:49.778Z,13.12
2022-10-22T10:27:27.578Z,13.09
2022-10-22T10:30:00.878Z,13.22
2022-10-22T10:32:48.242Z,13.23
2022-10-22T10:35:21.663Z,13.16
2022-10-22T10:38:02.042Z,13.31
2022-10-22T10:40:34.618Z,13.42
2022-10-22T10:43:08.348Z,13.45
2022-10-22T10:45:43.850Z,13.44
2022-10-22T10:48:38.227Z,13.56
2022-10-22T10:51:11.929Z,13.61
2022-10-22T10:53:52.838Z,13.71
2022-10-22T10:56:34.414Z,13.75
2022-10-22T10:59:13.879Z,13.71
2022-10-22T11:01:48.470Z,13.84
2022-10-22T11:04:44.947Z,13.82
2022-10-22T11:07:33.559Z,13.80
2022-10-22T11:10:04.996Z,13.83
2022-10-22T11:12:35.571Z,13.93
2022-10-22T11:15:09.533Z,13.85
2022-10-22T11:17:41.724Z,13.92
2022-10-22T11:20:17.293Z,14.04
2022-10-22T11:23:16.964Z,14.01
2022-10-22T11:25:40.696Z,14.03
2022-10-22T11:30:44.808Z,13.91
2022-10-22T11:33:16.409Z,13.93
2022-10-22T11:35:46.589Z,14.03
2022-10-22T11:38:17.884Z,13.83
2022-10-22T11:40:49.453Z,14.06
2022-10-22T11:43:29.834Z,14.08
2022-10-22T11:46:10.662Z,14.01
2022-10-22T11:48:39.785Z,14.01
2022-10-22T11:51:31.625Z,14.17
2022-10-22T11:53:59.891Z,14.04
2022-10-22T11:56:28.785Z,13.94
2022-10-22T11:58:56.947Z,13.92
2022-10-22T12:01:27.543Z,13.89
2022-10-22T12:04:16.969Z,13.85
2022-10-22T12:06:57.909Z,13.64
2022-10-22T12:09:26.667Z,13.80
2022-10-22T12:11:55.457Z,13.72
2022-10-22T12:14:26.767Z,13.71
2022-10-22T12:16:58.335Z,13.69
2022-10-22T12:19:28.825Z,13.71
2022-10-22T12:22:00.218Z,13.59
2022-10-22T12:24:31.813Z,13.56
2022-10-22T12:26:59.712Z,13.61
2022-10-22T12:29:28.610Z,13.66
2022-10-22T12:31:57.697Z,13.62
2022-10-22T12:34:26.146Z,13.45
2022-10-22T12:36:54.836Z,13.49
2022-10-22T12:39:27.211Z,13.61
2022-10-22T12:41:55.858Z,13.60
2022-10-22T12:44:23.748Z,13.58
2022-10-22T12:46:55.977Z,13.73
2022-10-22T12:49:36.285Z,13.80
2022-10-22T12:52:05.193Z,14.01
2022-10-22T12:54:35.765Z,14.03
2022-10-22T12:57:04.065Z,14.13
2022-10-22T12:59:35.296Z,14.10
2022-10-22T13:02:06.768Z,14.09
2022-10-22T13:04:38.466Z,14.27
2022-10-22T13:07:19.852Z,14.08
2022-10-22T13:09:59.310Z,14.06
2022-10-22T13:12:28.837Z,14.22
2022-10-22T13:14:56.821Z,14.24
2022-10-22T13:17:40.713Z,14.19
2022-10-22T13:20:19.019Z,14.16
2022-10-22T13:23:00.258Z,14.03
2022-10-22T13:25:31.315Z,13.98
2022-10-22T13:28:00.677Z,13.87
2022-10-22T13:30:30.138Z,13.93
2022-10-22T13:32:59.593Z,13.93
2022-10-22T13:35:29.450Z,13.92
2022-10-22T13:37:57.329Z,13.94
2022-10-22T13:40:25.258Z,13.94
2022-10-22T13:42:54.610Z,13.92
2022-10-22T13:45:22.518Z,13.82
2022-10-22T13:47:52.216Z,13.93
2022-10-22T13:50:21.736Z,13.91
2022-10-22T13:52:52.078Z,13.97
2022-10-22T13:55:21.754Z,13.92
2022-10-22T13:57:49.781Z,13.88
2022-10-22T14:00:20.749Z,13.87
2022-10-22T14:02:50.366Z,13.98
2022-10-22T14:05:19.000Z,13.86
2022-10-22T14:07:47.036Z,13.87
2022-10-22T14:10:16.609Z,13.97
2022-10-22T14:12:46.484Z,13.97
2022-10-22T14:15:20.789Z,13.93
2022-10-22T14:17:53.388Z,13.95
2022-10-22T14:20:23.065Z,13.91
2022-10-22T14:22:51.875Z,13.92
2022-10-22T14:25:21.677Z,13.88
2022-10-22T14:27:49.944Z,13.97
2022-10-22T14:30:22.113Z,14.02
2022-10-22T14:32:50.113Z,13.87
2022-10-22T14:35:20.868Z,13.87
2022-10-22T14:37:49.051Z,13.85
2022-10-22T14:40:18.933Z,13.92
2022-10-22T14:42:48.729Z,13.86
2022-10-22T14:45:21.001Z,13.82
2022-10-22T14:47:49.376Z,13.78
2022-10-22T14:50:17.539Z,13.77
2022-10-22T14:52:45.970Z,13.74
2022-10-22T14:55:16.165Z,13.82
2022-10-22T14:57:44.730Z,13.78
2022-10-22T15:00:14.551Z,13.70
2022-10-22T15:02:44.249Z,13.77
2022-10-22T15:05:12.642Z,13.59
2022-10-22T15:07:41.076Z,13.75
2022-10-22T15:10:10.610Z,13.79
2022-10-22T15:12:38.459Z,13.73
2022-10-22T15:15:09.874Z,13.69
2022-10-22T15:17:37.765Z,13.54
2022-10-22T15:20:08.668Z,13.64
2022-10-22T15:22:36.625Z,13.53
2022-10-22T15:25:06.156Z,13.54
2022-10-22T15:27:34.158Z,13.49
2022-10-22T15:32:32.343Z,13.36
2022-10-22T15:35:00.317Z,13.21
2022-10-22T15:37:30.848Z,13.06
2022-10-22T15:40:00.537Z,13.11
2022-10-22T15:42:28.439Z,13.06
2022-10-22T15:44:59.061Z,13.08
2022-10-22T15:47:29.141Z,12.98
2022-10-22T15:49:57.020Z,12.94
2022-10-22T15:52:24.939Z,12.84
2022-10-22T15:54:54.383Z,12.74
2022-10-22T15:57:22.334Z,12.70
2022-10-22T15:59:51.910Z,12.51
2022-10-22T16:02:19.859Z,12.34
2022-10-22T16:04:47.963Z,12.24
2022-10-22T16:07:15.862Z,12.16
2022-10-22T16:09:43.753Z,12.12
2022-10-22T16:12:15.270Z,12.09
2022-10-22T16:14:45.297Z,12.04
2022-10-22T16:17:13.210Z,11.99
2022-10-22T16:19:41.094Z,12.13
2022-10-22T16:22:11.594Z,11.93
2022-10-22T16:24:40.437Z,11.76
2022-10-22T16:27:08.509Z,11.66
2022-10-22T16:29:40.186Z,11.51
2022-10-22T16:32:08.664Z,11.30
2022-10-22T16:34:36.558Z,11.19
2022-10-22T16:37:10.068Z,11.17
2022-10-22T16:39:38.849Z,11.22
2022-10-22T16:42:06.857Z,11.18
2022-10-22T16:44:34.850Z,11.23
2022-10-22T16:47:04.141Z,11.05
2022-10-22T16:49:32.059Z,10.90
2022-10-22T16:51:59.947Z,10.82
2022-10-22T16:54:27.913Z,10.78
2022-10-22T16:56:55.850Z,10.67
2022-10-22T16:59:23.762Z,10.43
2022-10-22T17:01:51.724Z,10.40
2022-10-22T17:04:21.842Z,10.27
2022-10-22T17:06:49.757Z,10.21
2022-10-22T17:09:17.738Z,10.12
2022-10-22T17:11:45.710Z,10.01
2022-10-22T17:14:14.781Z,10.02
2022-10-22T17:16:43.182Z,10.14
2022-10-22T17:19:14.172Z,10.15
2022-10-22T17:21:43.839Z,10.26
2022-10-22T17:24:11.758Z,10.48
2022-10-22T17:26:39.665Z,10.76
2022-10-22T17:29:07.938Z,11.03
2022-10-22T17:31:37.470Z,11.06
2022-10-22T17:34:06.427Z,10.85
2022-10-22T17:36:36.023Z,10.55
2022-10-22T17:39:07.755Z,10.54
2022-10-22T17:41:37.576Z,10.95
2022-10-22T17:44:08.982Z,11.09
2022-10-22T17:46:37.186Z,11.10
2022-10-22T17:49:06.944Z,11.04
2022-10-22T17:51:34.890Z,11.17
2022-10-22T17:54:05.925Z,10.97
2022-10-22T17:56:40.045Z,10.89
2022-10-22T17:59:08.264Z,11.17
2022-10-22T18:01:40.272Z,11.17
2022-10-22T18:04:09.512Z,11.11
2022-10-22T18:06:37.615Z,11.27
2022-10-22T18:09:06.851Z,11.04
2022-10-22T18:11:36.552Z,10.90
2022-10-22T18:14:06.135Z,10.79
2022-10-22T18:16:34.148Z,10.66
2022-10-22T18:19:02.156Z,10.55
2022-10-22T18:21:31.321Z,10.37
2022-10-22T18:24:00.195Z,10.18
2022-10-22T18:26:28.091Z,10.05
2022-10-22T18:28:56.209Z,9.98
2022-10-22T18:31:26.824Z,9.90
2022-10-22T18:33:55.737Z,9.78
2022-10-22T18:36:26.230Z,9.71
2022-10-22T18:38:55.540Z,9.58
2022-10-22T18:41:23.729Z,9.57
2022-10-22T18:43:52.038Z,9.63
2022-10-22T18:46:20.199Z,9.55
2022-10-22T18:48:49.511Z,9.35
2022-10-22T18:51:17.526Z,9.40
2022-10-22T18:53:58.927Z,9.24
2022-10-22T18:56:33.534Z,9.25
2022-10-22T18:59:01.406Z,9.23
2022-10-22T19:01:30.579Z,9.15
2022-10-22T19:03:59.912Z,9.28
2022-10-22T19:06:34.502Z,9.21
2022-10-22T19:09:03.945Z,9.26
2022-10-22T19:11:32.348Z,9.51
2022-10-22T19:14:00.206Z,9.32
2022-10-22T19:16:28.597Z,9.20
2022-10-22T19:19:03.204Z,8.92
2022-10-22T19:21:31.464Z,8.87
2022-10-22T19:24:00.232Z,8.99
2022-10-22T19:26:29.189Z,9.00
2022-10-22T19:28:58.245Z,8.95
2022-10-22T19:31:26.921Z,8.84
2022-10-22T19:33:55.649Z,8.75
2022-10-22T19:36:27.608Z,8.69
2022-10-22T19:38:56.098Z,8.71
2022-10-22T19:41:25.679Z,8.71
2022-10-22T19:43:54.665Z,8.66
2022-10-22T19:46:23.545Z,8.66
2022-10-22T19:48:52.407Z,8.65
2022-10-22T19:51:22.236Z,8.51
2022-10-22T19:53:51.566Z,8.48
2022-10-22T19:56:21.652Z,8.39
2022-10-22T19:58:49.568Z,8.37
2022-10-22T20:01:19.081Z,8.26
2022-10-22T20:03:47.475Z,8.38
2022-10-22T20:06:16.285Z,8.40
2022-10-22T20:08:44.501Z,8.50
2022-10-22T20:11:18.837Z,8.52
2022-10-22T20:13:49.720Z,8.45
2022-10-22T20:16:22.947Z,8.46
2022-10-22T20:18:51.265Z,8.31
2022-10-22T20:21:20.110Z,8.14
2022-10-22T20:23:48.825Z,8.06
2022-10-22T20:26:18.126Z,8.09
2022-10-22T20:28:46.050Z,8.23
2022-10-22T20:31:16.924Z,8.20
2022-10-22T20:33:44.833Z,8.07
2022-10-22T20:36:15.408Z,7.98
2022-10-22T20:38:43.509Z,7.91
2022-10-22T20:41:13.116Z,7.73
2022-10-22T20:43:44.655Z,7.75
2022-10-22T20:46:16.014Z,7.80
2022-10-22T20:48:43.886Z,7.82
2022-10-22T20:51:11.816Z,7.78
2022-10-22T20:53:39.729Z,7.73
2022-10-22T20:56:08.253Z,7.78
2022-10-22T20:58:37.220Z,7.80
2022-10-22T21:01:10.428Z,7.80
2022-10-22T21:03:38.620Z,7.79
2022-10-22T21:06:07.308Z,7.98
2022-10-22T21:08:35.408Z,8.13
2022-10-22T21:11:03.433Z,7.92
2022-10-22T21:13:33.059Z,7.84
2022-10-22T21:16:01.061Z,7.88
2022-10-22T21:18:30.376Z,7.75
2022-10-22T21:20:58.271Z,7.61
2022-10-22T21:23:26.273Z,7.48
2022-10-22T21:25:55.240Z,7.55
2022-10-22T21:28:23.193Z,7.62
2022-10-22T21:30:51.370Z,7.52
2022-10-22T21:33:19.445Z,7.40
2022-10-22T21:35:53.241Z,7.54
2022-10-22T21:38:22.244Z,7.53
2022-10-22T21:40:50.520Z,7.48
2022-10-22T21:43:19.037Z,7.53
2022-10-22T21:45:47.133Z,7.77
2022-10-22T21:48:15.701Z,7.65
2022-10-22T21:50:44.706Z,7.63
2022-10-22T21:53:14.000Z,7.50
2022-10-22T21:55:42.409Z,7.58
2022-10-22T21:58:10.310Z,7.49
2022-10-22T22:00:38.227Z,7.61
2022-10-22T22:03:08.064Z,7.41
2022-10-22T22:05:35.966Z,7.32
2022-10-22T22:08:03.842Z,7.38
2022-10-22T22:10:33.172Z,7.54
2022-10-22T22:13:01.150Z,7.45
2022-10-22T22:15:31.547Z,7.37
2022-10-22T22:17:59.421Z,7.22
2022-10-22T22:20:27.429Z,7.36
2022-10-22T22:22:55.421Z,7.25
2022-10-22T22:25:23.317Z,7.20
2022-10-22T22:27:52.602Z,7.19
2022-10-22T22:30:20.549Z,7.14
2022-10-22T22:32:48.423Z,7.23
2022-10-22T22:35:16.535Z,7.20
2022-10-22T22:37:44.575Z,7.36
2022-10-22T22:40:13.081Z,7.49
2022-10-22T22:42:40.968Z,7.45
2022-10-22T22:45:10.897Z,7.31
2022-10-22T22:47:38.922Z,7.28
2022-10-22T22:50:08.016Z,7.21
2022-10-22T22:52:35.899Z,7.05
2022-10-22T22:55:06.343Z,7.21
2022-10-22T22:57:34.271Z,7.20
2022-10-22T23:00:02.135Z,7.11
2022-10-22T23:02:31.446Z,7.10
2022-10-22T23:04:59.437Z,7.14
2022-10-22T23:07:27.353Z,7.07
2022-10-22T23:09:55.222Z,7.01
2022-10-22T23:12:23.120Z,6.89
2022-10-22T23:14:51.542Z,6.97
2022-10-22T23:17:20.095Z,6.90
2022-10-22T23:19:49.448Z,6.79
2022-10-22T23:22:17.354Z,6.74
2022-10-22T23:24:45.266Z,6.74
2022-10-22T23:27:13.181Z,7.05
2022-10-22T23:29:41.106Z,7.08
2022-10-22T23:32:13.347Z,6.98
2022-10-22T23:34:41.257Z,7.11
2022-10-22T23:37:11.038Z,7.15
2022-10-22T23:39:38.995Z,7.07
2022-10-22T23:42:06.925Z,7.11
2022-10-22T23:44:34.857Z,7.02
2022-10-22T23:47:02.738Z,7.21
2022-10-22T23:49:30.629Z,7.02
2022-10-22T23:51:58.488Z,6.82
2022-10-22T23:54:27.846Z,7.08
2022-10-22T23:56:55.717Z,7.01
2022-10-22T23:59:23.626Z,6.92
